sensor_id;sensor_type;location;lat;lon;timestamp;P1;durP1;ratioP1;P2;durP2;ratioP2
71671;SDS011;62112;45.638;11.714;2023-02-01T00:01:44;21.52;;;14.43;;
71671;SDS011;62112;45.638;11.714;2023-02-01T00:04:11;22.23;;;13.97;;
71671;SDS011;62112;45.638;11.714;2023-02-01T00:06:37;23.00;;;14.98;;
71671;SDS011;62112;45.638;11.714;2023-02-01T00:09:03;22.65;;;15.38;;
71671;SDS011;62112;45.638;11.714;2023-02-01T00:11:29;20.98;;;14.15;;
71671;SDS011;62112;45.638;11.714;2023-02-01T00:13:56;21.70;;;14.10;;
71671;SDS011;62112;45.638;11.714;2023-02-01T00:16:23;21.63;;;14.45;;
71671;SDS011;62112;45.638;11.714;2023-02-01T00:18:51;22.50;;;15.27;;
71671;SDS011;62112;45.638;11.714;2023-02-01T00:21:26;21.63;;;15.10;;
71671;SDS011;62112;45.638;11.714;2023-02-01T00:23:52;24.40;;;15.00;;
71671;SDS011;62112;45.638;11.714;2023-02-01T00:26:19;20.83;;;14.30;;
71671;SDS011;62112;45.638;11.714;2023-02-01T00:28:50;22.27;;;14.98;;
71671;SDS011;62112;45.638;11.714;2023-02-01T00:31:16;20.40;;;13.85;;
71671;SDS011;62112;45.638;11.714;2023-02-01T00:33:42;20.10;;;14.20;;
71671;SDS011;62112;45.638;11.714;2023-02-01T00:36:11;21.90;;;14.97;;
71671;SDS011;62112;45.638;11.714;2023-02-01T00:38:37;22.77;;;14.93;;
71671;SDS011;62112;45.638;11.714;2023-02-01T00:41:07;22.23;;;14.68;;
71671;SDS011;62112;45.638;11.714;2023-02-01T00:43:33;21.38;;;14.43;;
71671;SDS011;62112;45.638;11.714;2023-02-01T00:45:59;21.60;;;14.55;;
71671;SDS011;62112;45.638;11.714;2023-02-01T00:48:26;22.53;;;14.80;;
71671;SDS011;62112;45.638;11.714;2023-02-01T00:50:52;19.65;;;14.27;;
71671;SDS011;62112;45.638;11.714;2023-02-01T00:53:18;21.40;;;14.18;;
71671;SDS011;62112;45.638;11.714;2023-02-01T00:55:47;21.83;;;14.38;;
71671;SDS011;62112;45.638;11.714;2023-02-01T00:58:14;21.83;;;14.43;;
71671;SDS011;62112;45.638;11.714;2023-02-01T01:00:40;20.33;;;13.65;;
71671;SDS011;62112;45.638;11.714;2023-02-01T01:03:06;21.33;;;14.02;;
71671;SDS011;62112;45.638;11.714;2023-02-01T01:05:48;20.73;;;13.90;;
71671;SDS011;62112;45.638;11.714;2023-02-01T01:08:15;21.02;;;13.57;;
71671;SDS011;62112;45.638;11.714;2023-02-01T01:10:41;22.27;;;14.07;;
71671;SDS011;62112;45.638;11.714;2023-02-01T01:13:08;22.92;;;14.63;;
71671;SDS011;62112;45.638;11.714;2023-02-01T01:15:38;20.70;;;14.25;;
71671;SDS011;62112;45.638;11.714;2023-02-01T01:18:04;20.83;;;13.98;;
71671;SDS011;62112;45.638;11.714;2023-02-01T01:20:31;20.42;;;13.70;;
71671;SDS011;62112;45.638;11.714;2023-02-01T01:22:59;21.00;;;13.90;;
71671;SDS011;62112;45.638;11.714;2023-02-01T01:25:25;20.77;;;14.13;;
71671;SDS011;62112;45.638;11.714;2023-02-01T01:27:51;20.25;;;13.88;;
71671;SDS011;62112;45.638;11.714;2023-02-01T01:30:17;21.37;;;14.27;;
71671;SDS011;62112;45.638;11.714;2023-02-01T01:32:43;20.10;;;13.43;;
71671;SDS011;62112;45.638;11.714;2023-02-01T01:35:09;23.42;;;14.60;;
71671;SDS011;62112;45.638;11.714;2023-02-01T01:37:36;21.50;;;14.20;;
71671;SDS011;62112;45.638;11.714;2023-02-01T01:40:03;19.77;;;13.30;;
71671;SDS011;62112;45.638;11.714;2023-02-01T01:42:29;20.40;;;14.33;;
71671;SDS011;62112;45.638;11.714;2023-02-01T01:44:57;20.50;;;13.90;;
71671;SDS011;62112;45.638;11.714;2023-02-01T01:47:33;22.33;;;14.45;;
71671;SDS011;62112;45.638;11.714;2023-02-01T01:50:02;20.20;;;13.77;;
71671;SDS011;62112;45.638;11.714;2023-02-01T01:52:31;20.17;;;12.88;;
71671;SDS011;62112;45.638;11.714;2023-02-01T01:54:57;20.47;;;13.77;;
71671;SDS011;62112;45.638;11.714;2023-02-01T01:57:25;20.60;;;13.95;;
71671;SDS011;62112;45.638;11.714;2023-02-01T01:59:56;21.05;;;14.13;;
71671;SDS011;62112;45.638;11.714;2023-02-01T02:02:30;21.02;;;13.88;;
71671;SDS011;62112;45.638;11.714;2023-02-01T02:04:56;20.08;;;14.00;;
71671;SDS011;62112;45.638;11.714;2023-02-01T02:07:23;21.97;;;14.30;;
71671;SDS011;62112;45.638;11.714;2023-02-01T02:09:53;19.10;;;13.02;;
71671;SDS011;62112;45.638;11.714;2023-02-01T02:12:19;20.95;;;13.45;;
71671;SDS011;62112;45.638;11.714;2023-02-01T02:14:45;20.90;;;13.63;;
71671;SDS011;62112;45.638;11.714;2023-02-01T02:34:52;20.23;;;12.73;;
71671;SDS011;62112;45.638;11.714;2023-02-01T02:37:32;19.30;;;12.43;;
71671;SDS011;62112;45.638;11.714;2023-02-01T02:40:07;21.27;;;14.07;;
71671;SDS011;62112;45.638;11.714;2023-02-01T02:45:42;19.67;;;12.80;;
71671;SDS011;62112;45.638;11.714;2023-02-01T02:48:35;18.33;;;12.52;;
71671;SDS011;62112;45.638;11.714;2023-02-01T02:51:15;19.08;;;13.35;;
71671;SDS011;62112;45.638;11.714;2023-02-01T02:54:15;18.95;;;12.40;;
71671;SDS011;62112;45.638;11.714;2023-02-01T02:57:07;20.02;;;12.68;;
71671;SDS011;62112;45.638;11.714;2023-02-01T02:59:55;20.13;;;13.53;;
71671;SDS011;62112;45.638;11.714;2023-02-01T03:02:43;18.52;;;12.98;;
71671;SDS011;62112;45.638;11.714;2023-02-01T03:05:35;18.67;;;12.43;;
71671;SDS011;62112;45.638;11.714;2023-02-01T03:08:03;18.58;;;12.52;;
71671;SDS011;62112;45.638;11.714;2023-02-01T03:10:37;19.00;;;12.75;;
71671;SDS011;62112;45.638;11.714;2023-02-01T03:13:22;20.33;;;13.03;;
71671;SDS011;62112;45.638;11.714;2023-02-01T03:21:32;18.30;;;12.13;;
71671;SDS011;62112;45.638;11.714;2023-02-01T03:24:05;19.65;;;13.07;;
71671;SDS011;62112;45.638;11.714;2023-02-01T03:26:48;18.10;;;12.17;;
71671;SDS011;62112;45.638;11.714;2023-02-01T03:32:21;19.00;;;12.63;;
71671;SDS011;62112;45.638;11.714;2023-02-01T03:34:47;18.17;;;12.15;;
71671;SDS011;62112;45.638;11.714;2023-02-01T03:37:16;18.05;;;12.40;;
71671;SDS011;62112;45.638;11.714;2023-02-01T03:39:52;18.23;;;12.43;;
71671;SDS011;62112;45.638;11.714;2023-02-01T03:42:31;18.70;;;12.80;;
71671;SDS011;62112;45.638;11.714;2023-02-01T03:45:07;18.17;;;12.30;;
71671;SDS011;62112;45.638;11.714;2023-02-01T03:47:42;18.85;;;12.50;;
71671;SDS011;62112;45.638;11.714;2023-02-01T03:50:20;17.65;;;12.18;;
71671;SDS011;62112;45.638;11.714;2023-02-01T03:53:04;19.73;;;12.70;;
71671;SDS011;62112;45.638;11.714;2023-02-01T03:55:33;17.77;;;12.18;;
71671;SDS011;62112;45.638;11.714;2023-02-01T03:58:22;17.77;;;11.88;;
71671;SDS011;62112;45.638;11.714;2023-02-01T04:00:58;17.63;;;11.50;;
71671;SDS011;62112;45.638;11.714;2023-02-01T04:03:25;18.20;;;12.13;;
71671;SDS011;62112;45.638;11.714;2023-02-01T04:05:53;19.20;;;12.37;;
71671;SDS011;62112;45.638;11.714;2023-02-01T04:08:19;17.75;;;11.52;;
71671;SDS011;62112;45.638;11.714;2023-02-01T04:10:45;19.08;;;12.48;;
71671;SDS011;62112;45.638;11.714;2023-02-01T04:13:11;17.65;;;12.27;;
71671;SDS011;62112;45.638;11.714;2023-02-01T04:15:38;17.88;;;11.48;;
71671;SDS011;62112;45.638;11.714;2023-02-01T04:18:04;18.43;;;11.93;;
71671;SDS011;62112;45.638;11.714;2023-02-01T04:20:30;17.90;;;12.13;;
71671;SDS011;62112;45.638;11.714;2023-02-01T04:22:56;17.52;;;11.45;;
71671;SDS011;62112;45.638;11.714;2023-02-01T04:25:22;17.25;;;11.50;;
71671;SDS011;62112;45.638;11.714;2023-02-01T04:27:48;17.50;;;11.83;;
71671;SDS011;62112;45.638;11.714;2023-02-01T04:30:14;16.83;;;11.47;;
71671;SDS011;62112;45.638;11.714;2023-02-01T04:32:40;19.20;;;11.95;;
71671;SDS011;62112;45.638;11.714;2023-02-01T04:35:07;17.23;;;11.48;;
71671;SDS011;62112;45.638;11.714;2023-02-01T04:37:33;17.95;;;11.38;;
71671;SDS011;62112;45.638;11.714;2023-02-01T04:39:59;18.33;;;11.90;;
71671;SDS011;62112;45.638;11.714;2023-02-01T04:42:25;17.90;;;11.65;;
71671;SDS011;62112;45.638;11.714;2023-02-01T04:44:52;17.67;;;11.48;;
71671;SDS011;62112;45.638;11.714;2023-02-01T04:47:17;19.03;;;11.50;;
71671;SDS011;62112;45.638;11.714;2023-02-01T04:49:43;18.58;;;12.32;;
71671;SDS011;62112;45.638;11.714;2023-02-01T04:52:09;17.25;;;10.80;;
71671;SDS011;62112;45.638;11.714;2023-02-01T04:54:35;17.90;;;11.57;;
71671;SDS011;62112;45.638;11.714;2023-02-01T04:57:01;17.25;;;11.88;;
71671;SDS011;62112;45.638;11.714;2023-02-01T04:59:26;17.77;;;11.85;;
71671;SDS011;62112;45.638;11.714;2023-02-01T05:01:53;18.87;;;11.87;;
71671;SDS011;62112;45.638;11.714;2023-02-01T05:04:19;17.42;;;11.65;;
71671;SDS011;62112;45.638;11.714;2023-02-01T05:06:45;18.70;;;12.07;;
71671;SDS011;62112;45.638;11.714;2023-02-01T05:09:11;16.80;;;11.70;;
71671;SDS011;62112;45.638;11.714;2023-02-01T05:11:37;17.83;;;11.37;;
71671;SDS011;62112;45.638;11.714;2023-02-01T05:14:21;18.38;;;11.95;;
71671;SDS011;62112;45.638;11.714;2023-02-01T05:16:47;16.80;;;11.20;;
71671;SDS011;62112;45.638;11.714;2023-02-01T05:19:13;16.70;;;11.20;;
71671;SDS011;62112;45.638;11.714;2023-02-01T05:21:39;15.88;;;10.98;;
71671;SDS011;62112;45.638;11.714;2023-02-01T05:24:05;15.88;;;10.75;;
71671;SDS011;62112;45.638;11.714;2023-02-01T05:26:38;16.88;;;10.95;;
71671;SDS011;62112;45.638;11.714;2023-02-01T05:29:05;16.50;;;10.85;;
71671;SDS011;62112;45.638;11.714;2023-02-01T05:31:32;16.83;;;10.93;;
71671;SDS011;62112;45.638;11.714;2023-02-01T05:33:58;16.08;;;11.13;;
71671;SDS011;62112;45.638;11.714;2023-02-01T05:36:24;18.23;;;11.32;;
71671;SDS011;62112;45.638;11.714;2023-02-01T05:38:50;16.20;;;10.52;;
71671;SDS011;62112;45.638;11.714;2023-02-01T05:41:16;16.77;;;10.90;;
71671;SDS011;62112;45.638;11.714;2023-02-01T05:43:42;16.98;;;10.88;;
71671;SDS011;62112;45.638;11.714;2023-02-01T05:46:08;16.27;;;10.98;;
71671;SDS011;62112;45.638;11.714;2023-02-01T05:48:37;17.07;;;11.03;;
71671;SDS011;62112;45.638;11.714;2023-02-01T05:51:06;16.38;;;10.65;;
71671;SDS011;62112;45.638;11.714;2023-02-01T05:53:33;16.23;;;10.68;;
71671;SDS011;62112;45.638;11.714;2023-02-01T05:55:59;15.65;;;10.73;;
71671;SDS011;62112;45.638;11.714;2023-02-01T05:58:25;15.93;;;10.53;;
71671;SDS011;62112;45.638;11.714;2023-02-01T06:00:51;15.50;;;10.50;;
71671;SDS011;62112;45.638;11.714;2023-02-01T06:03:16;16.20;;;10.82;;
71671;SDS011;62112;45.638;11.714;2023-02-01T06:05:46;16.02;;;10.73;;
71671;SDS011;62112;45.638;11.714;2023-02-01T06:08:13;15.20;;;10.30;;
71671;SDS011;62112;45.638;11.714;2023-02-01T06:10:39;16.13;;;10.45;;
71671;SDS011;62112;45.638;11.714;2023-02-01T06:13:05;16.35;;;10.38;;
71671;SDS011;62112;45.638;11.714;2023-02-01T06:15:31;15.15;;;10.30;;
71671;SDS011;62112;45.638;11.714;2023-02-01T06:17:57;15.93;;;10.80;;
71671;SDS011;62112;45.638;11.714;2023-02-01T06:20:23;15.55;;;10.32;;
71671;SDS011;62112;45.638;11.714;2023-02-01T06:22:49;16.95;;;10.85;;
71671;SDS011;62112;45.638;11.714;2023-02-01T06:25:15;16.90;;;10.70;;
71671;SDS011;62112;45.638;11.714;2023-02-01T06:27:42;16.13;;;10.87;;
71671;SDS011;62112;45.638;11.714;2023-02-01T06:30:10;15.68;;;10.10;;
71671;SDS011;62112;45.638;11.714;2023-02-01T06:32:38;16.13;;;10.93;;
71671;SDS011;62112;45.638;11.714;2023-02-01T06:35:06;15.95;;;10.32;;
71671;SDS011;62112;45.638;11.714;2023-02-01T06:37:40;15.10;;;10.32;;
71671;SDS011;62112;45.638;11.714;2023-02-01T06:40:07;18.07;;;11.37;;
71671;SDS011;62112;45.638;11.714;2023-02-01T06:42:34;17.27;;;10.90;;
71671;SDS011;62112;45.638;11.714;2023-02-01T06:45:02;17.98;;;11.00;;
71671;SDS011;62112;45.638;11.714;2023-02-01T06:47:29;15.48;;;10.25;;
71671;SDS011;62112;45.638;11.714;2023-02-01T06:49:55;15.97;;;10.13;;
71671;SDS011;62112;45.638;11.714;2023-02-01T06:52:20;16.25;;;10.25;;
71671;SDS011;62112;45.638;11.714;2023-02-01T06:54:48;16.50;;;10.45;;
71671;SDS011;62112;45.638;11.714;2023-02-01T06:57:15;14.80;;;9.70;;
71671;SDS011;62112;45.638;11.714;2023-02-01T06:59:41;14.93;;;9.53;;
71671;SDS011;62112;45.638;11.714;2023-02-01T07:02:11;15.80;;;9.93;;
71671;SDS011;62112;45.638;11.714;2023-02-01T07:04:37;15.70;;;9.60;;
71671;SDS011;62112;45.638;11.714;2023-02-01T07:07:04;16.83;;;10.00;;
71671;SDS011;62112;45.638;11.714;2023-02-01T07:09:30;15.17;;;10.00;;
71671;SDS011;62112;45.638;11.714;2023-02-01T07:11:56;15.20;;;10.07;;
71671;SDS011;62112;45.638;11.714;2023-02-01T07:14:22;16.35;;;10.40;;
71671;SDS011;62112;45.638;11.714;2023-02-01T07:16:48;15.93;;;10.37;;
71671;SDS011;62112;45.638;11.714;2023-02-01T07:19:14;16.13;;;10.02;;
71671;SDS011;62112;45.638;11.714;2023-02-01T07:21:39;15.82;;;9.68;;
71671;SDS011;62112;45.638;11.714;2023-02-01T07:24:05;15.67;;;10.60;;
71671;SDS011;62112;45.638;11.714;2023-02-01T07:26:31;14.95;;;9.65;;
71671;SDS011;62112;45.638;11.714;2023-02-01T07:28:57;15.75;;;10.32;;
71671;SDS011;62112;45.638;11.714;2023-02-01T07:31:23;17.37;;;10.83;;
71671;SDS011;62112;45.638;11.714;2023-02-01T07:33:51;16.05;;;10.10;;
71671;SDS011;62112;45.638;11.714;2023-02-01T07:36:17;18.13;;;10.27;;
71671;SDS011;62112;45.638;11.714;2023-02-01T07:38:48;17.20;;;10.25;;
71671;SDS011;62112;45.638;11.714;2023-02-01T07:41:16;17.35;;;10.60;;
71671;SDS011;62112;45.638;11.714;2023-02-01T07:43:53;17.07;;;10.13;;
71671;SDS011;62112;45.638;11.714;2023-02-01T07:46:20;16.70;;;10.25;;
71671;SDS011;62112;45.638;11.714;2023-02-01T07:48:46;18.20;;;10.40;;
71671;SDS011;62112;45.638;11.714;2023-02-01T07:51:14;18.05;;;10.45;;
71671;SDS011;62112;45.638;11.714;2023-02-01T07:53:54;16.17;;;10.00;;
71671;SDS011;62112;45.638;11.714;2023-02-01T07:56:20;16.33;;;9.70;;
71671;SDS011;62112;45.638;11.714;2023-02-01T07:58:51;15.65;;;9.88;;
71671;SDS011;62112;45.638;11.714;2023-02-01T08:01:23;16.50;;;10.07;;
71671;SDS011;62112;45.638;11.714;2023-02-01T08:03:51;17.37;;;10.00;;
71671;SDS011;62112;45.638;11.714;2023-02-01T08:06:21;15.77;;;10.15;;
71671;SDS011;62112;45.638;11.714;2023-02-01T08:08:59;16.58;;;10.77;;
71671;SDS011;62112;45.638;11.714;2023-02-01T08:11:26;15.52;;;10.27;;
71671;SDS011;62112;45.638;11.714;2023-02-01T08:13:52;17.08;;;10.98;;
71671;SDS011;62112;45.638;11.714;2023-02-01T08:16:18;17.83;;;10.07;;
71671;SDS011;62112;45.638;11.714;2023-02-01T08:18:46;16.42;;;10.57;;
71671;SDS011;62112;45.638;11.714;2023-02-01T08:21:13;18.42;;;10.25;;
71671;SDS011;62112;45.638;11.714;2023-02-01T08:23:42;16.02;;;9.93;;
71671;SDS011;62112;45.638;11.714;2023-02-01T08:26:16;16.30;;;10.30;;
71671;SDS011;62112;45.638;11.714;2023-02-01T08:28:45;16.23;;;10.33;;
71671;SDS011;62112;45.638;11.714;2023-02-01T08:31:15;15.25;;;9.85;;
71671;SDS011;62112;45.638;11.714;2023-02-01T08:33:43;17.13;;;10.73;;
71671;SDS011;62112;45.638;11.714;2023-02-01T08:36:12;15.80;;;10.32;;
71671;SDS011;62112;45.638;11.714;2023-02-01T08:38:39;17.37;;;11.00;;
71671;SDS011;62112;45.638;11.714;2023-02-01T08:41:12;16.33;;;10.50;;
71671;SDS011;62112;45.638;11.714;2023-02-01T08:43:40;16.35;;;10.73;;
71671;SDS011;62112;45.638;11.714;2023-02-01T08:46:06;16.48;;;10.07;;
71671;SDS011;62112;45.638;11.714;2023-02-01T08:48:33;15.75;;;10.57;;
71671;SDS011;62112;45.638;11.714;2023-02-01T08:51:04;16.38;;;10.50;;
71671;SDS011;62112;45.638;11.714;2023-02-01T08:53:31;16.47;;;10.80;;
71671;SDS011;62112;45.638;11.714;2023-02-01T08:55:57;16.08;;;10.40;;
71671;SDS011;62112;45.638;11.714;2023-02-01T08:58:23;16.45;;;10.23;;
71671;SDS011;62112;45.638;11.714;2023-02-01T09:00:49;15.00;;;10.02;;
71671;SDS011;62112;45.638;11.714;2023-02-01T09:03:16;16.02;;;10.32;;
71671;SDS011;62112;45.638;11.714;2023-02-01T09:05:42;15.73;;;10.60;;
71671;SDS011;62112;45.638;11.714;2023-02-01T09:08:08;16.05;;;10.73;;
71671;SDS011;62112;45.638;11.714;2023-02-01T09:10:34;17.73;;;10.45;;
71671;SDS011;62112;45.638;11.714;2023-02-01T09:13:01;15.60;;;10.25;;
71671;SDS011;62112;45.638;11.714;2023-02-01T09:15:28;15.85;;;10.20;;
71671;SDS011;62112;45.638;11.714;2023-02-01T09:17:54;16.73;;;10.43;;
71671;SDS011;62112;45.638;11.714;2023-02-01T09:20:20;15.48;;;10.02;;
71671;SDS011;62112;45.638;11.714;2023-02-01T09:22:49;15.35;;;10.73;;
71671;SDS011;62112;45.638;11.714;2023-02-01T09:25:20;16.13;;;10.40;;
71671;SDS011;62112;45.638;11.714;2023-02-01T09:27:45;16.20;;;10.17;;
71671;SDS011;62112;45.638;11.714;2023-02-01T09:30:12;18.25;;;10.27;;
71671;SDS011;62112;45.638;11.714;2023-02-01T09:32:38;17.13;;;10.07;;
71671;SDS011;62112;45.638;11.714;2023-02-01T09:35:04;17.58;;;10.23;;
71671;SDS011;62112;45.638;11.714;2023-02-01T09:37:30;18.87;;;10.30;;
71671;SDS011;62112;45.638;11.714;2023-02-01T09:39:56;15.63;;;10.15;;
71671;SDS011;62112;45.638;11.714;2023-02-01T09:42:27;15.18;;;10.27;;
71671;SDS011;62112;45.638;11.714;2023-02-01T09:47:51;14.60;;;9.63;;
71671;SDS011;62112;45.638;11.714;2023-02-01T09:50:34;15.70;;;9.88;;
71671;SDS011;62112;45.638;11.714;2023-02-01T09:53:20;14.95;;;9.80;;
71671;SDS011;62112;45.638;11.714;2023-02-01T09:56:00;15.73;;;9.90;;
71671;SDS011;62112;45.638;11.714;2023-02-01T09:58:47;15.10;;;9.65;;
71671;SDS011;62112;45.638;11.714;2023-02-01T10:01:41;15.20;;;9.47;;
71671;SDS011;62112;45.638;11.714;2023-02-01T10:04:09;15.10;;;9.77;;
71671;SDS011;62112;45.638;11.714;2023-02-01T10:06:54;16.27;;;9.15;;
71671;SDS011;62112;45.638;11.714;2023-02-01T10:09:56;19.42;;;10.10;;
71671;SDS011;62112;45.638;11.714;2023-02-01T10:15:40;14.70;;;9.27;;
71671;SDS011;62112;45.638;11.714;2023-02-01T10:18:17;15.48;;;9.52;;
71671;SDS011;62112;45.638;11.714;2023-02-01T10:23:59;16.27;;;9.75;;
71671;SDS011;62112;45.638;11.714;2023-02-01T10:27:18;15.00;;;9.55;;
71671;SDS011;62112;45.638;11.714;2023-02-01T10:29:49;14.93;;;9.10;;
71671;SDS011;62112;45.638;11.714;2023-02-01T10:32:23;13.68;;;9.32;;
71671;SDS011;62112;45.638;11.714;2023-02-01T10:34:58;14.95;;;9.45;;
71671;SDS011;62112;45.638;11.714;2023-02-01T10:37:27;14.65;;;9.30;;
71671;SDS011;62112;45.638;11.714;2023-02-01T10:40:19;15.35;;;9.68;;
71671;SDS011;62112;45.638;11.714;2023-02-01T10:42:46;14.17;;;9.60;;
71671;SDS011;62112;45.638;11.714;2023-02-01T10:45:19;14.45;;;9.50;;
71671;SDS011;62112;45.638;11.714;2023-02-01T10:47:50;15.27;;;9.63;;
71671;SDS011;62112;45.638;11.714;2023-02-01T10:53:03;15.07;;;9.30;;
71671;SDS011;62112;45.638;11.714;2023-02-01T10:56:10;15.90;;;9.50;;
71671;SDS011;62112;45.638;11.714;2023-02-01T10:58:45;14.70;;;9.32;;
71671;SDS011;62112;45.638;11.714;2023-02-01T11:01:23;15.20;;;9.20;;
71671;SDS011;62112;45.638;11.714;2023-02-01T11:03:57;15.70;;;9.63;;
71671;SDS011;62112;45.638;11.714;2023-02-01T11:06:37;14.43;;;9.27;;
71671;SDS011;62112;45.638;11.714;2023-02-01T11:09:10;14.57;;;9.23;;
71671;SDS011;62112;45.638;11.714;2023-02-01T11:14:15;14.63;;;9.40;;
71671;SDS011;62112;45.638;11.714;2023-02-01T11:16:41;15.45;;;9.48;;
71671;SDS011;62112;45.638;11.714;2023-02-01T11:19:32;17.02;;;9.95;;
71671;SDS011;62112;45.638;11.714;2023-02-01T11:22:00;14.47;;;9.03;;
71671;SDS011;62112;45.638;11.714;2023-02-01T11:24:27;15.98;;;9.70;;
71671;SDS011;62112;45.638;11.714;2023-02-01T11:26:59;13.70;;;8.82;;
71671;SDS011;62112;45.638;11.714;2023-02-01T11:29:35;13.73;;;9.18;;
71671;SDS011;62112;45.638;11.714;2023-02-01T11:32:04;14.27;;;9.23;;
71671;SDS011;62112;45.638;11.714;2023-02-01T11:34:37;14.43;;;9.00;;
71671;SDS011;62112;45.638;11.714;2023-02-01T11:37:12;17.45;;;9.88;;
71671;SDS011;62112;45.638;11.714;2023-02-01T11:39:58;15.40;;;9.40;;
71671;SDS011;62112;45.638;11.714;2023-02-01T11:42:30;15.20;;;9.68;;
71671;SDS011;62112;45.638;11.714;2023-02-01T11:47:56;16.15;;;9.43;;
71671;SDS011;62112;45.638;11.714;2023-02-01T11:50:25;17.75;;;10.43;;
71671;SDS011;62112;45.638;11.714;2023-02-01T11:55:56;17.42;;;11.20;;
71671;SDS011;62112;45.638;11.714;2023-02-01T12:01:47;17.95;;;11.25;;
71671;SDS011;62112;45.638;11.714;2023-02-01T12:04:36;17.95;;;11.38;;
71671;SDS011;62112;45.638;11.714;2023-02-01T12:07:26;16.98;;;11.10;;
71671;SDS011;62112;45.638;11.714;2023-02-01T12:12:57;16.33;;;11.00;;
71671;SDS011;62112;45.638;11.714;2023-02-01T12:21:29;19.17;;;11.93;;
71671;SDS011;62112;45.638;11.714;2023-02-01T12:24:29;19.15;;;12.60;;
71671;SDS011;62112;45.638;11.714;2023-02-01T12:35:36;18.58;;;11.63;;
71671;SDS011;62112;45.638;11.714;2023-02-01T12:38:39;18.73;;;11.90;;
71671;SDS011;62112;45.638;11.714;2023-02-01T12:44:08;20.45;;;12.43;;
71671;SDS011;62112;45.638;11.714;2023-02-01T12:46:57;19.02;;;12.18;;
71671;SDS011;62112;45.638;11.714;2023-02-01T12:52:19;20.55;;;12.68;;
71671;SDS011;62112;45.638;11.714;2023-02-01T12:58:07;21.73;;;12.57;;
71671;SDS011;62112;45.638;11.714;2023-02-01T13:03:59;20.30;;;12.70;;
71671;SDS011;62112;45.638;11.714;2023-02-01T13:06:47;18.65;;;12.27;;
71671;SDS011;62112;45.638;11.714;2023-02-01T13:09:26;17.47;;;11.00;;
71671;SDS011;62112;45.638;11.714;2023-02-01T13:11:54;18.17;;;11.50;;
71671;SDS011;62112;45.638;11.714;2023-02-01T13:19:55;17.85;;;10.80;;
71671;SDS011;62112;45.638;11.714;2023-02-01T13:22:27;19.23;;;10.80;;
71671;SDS011;62112;45.638;11.714;2023-02-01T13:25:13;18.30;;;11.65;;
71671;SDS011;62112;45.638;11.714;2023-02-01T13:27:39;17.80;;;11.60;;
71671;SDS011;62112;45.638;11.714;2023-02-01T13:30:20;15.65;;;10.45;;
71671;SDS011;62112;45.638;11.714;2023-02-01T13:33:12;17.33;;;10.98;;
71671;SDS011;62112;45.638;11.714;2023-02-01T13:38:36;16.55;;;10.77;;
71671;SDS011;62112;45.638;11.714;2023-02-01T13:41:38;18.08;;;10.65;;
71671;SDS011;62112;45.638;11.714;2023-02-01T13:44:26;16.85;;;10.40;;
71671;SDS011;62112;45.638;11.714;2023-02-01T13:46:57;18.33;;;10.57;;
71671;SDS011;62112;45.638;11.714;2023-02-01T13:49:27;17.23;;;10.10;;
71671;SDS011;62112;45.638;11.714;2023-02-01T13:51:56;15.68;;;10.15;;
71671;SDS011;62112;45.638;11.714;2023-02-01T13:54:31;16.25;;;8.43;;
71671;SDS011;62112;45.638;11.714;2023-02-01T13:57:05;12.68;;;6.78;;
71671;SDS011;62112;45.638;11.714;2023-02-01T13:59:51;14.15;;;8.52;;
71671;SDS011;62112;45.638;11.714;2023-02-01T14:05:10;13.67;;;8.27;;
71671;SDS011;62112;45.638;11.714;2023-02-01T14:13:29;14.02;;;8.75;;
71671;SDS011;62112;45.638;11.714;2023-02-01T14:24:29;15.13;;;8.55;;
71671;SDS011;62112;45.638;11.714;2023-02-01T14:26:50;14.02;;;8.27;;
71671;SDS011;62112;45.638;11.714;2023-02-01T14:29:50;14.82;;;8.30;;
71671;SDS011;62112;45.638;11.714;2023-02-01T14:32:21;12.63;;;7.97;;
71671;SDS011;62112;45.638;11.714;2023-02-01T14:34:51;13.02;;;8.13;;
71671;SDS011;62112;45.638;11.714;2023-02-01T14:45:46;12.63;;;7.50;;
71671;SDS011;62112;45.638;11.714;2023-02-01T14:55:45;13.00;;;8.10;;
71671;SDS011;62112;45.638;11.714;2023-02-01T15:01:18;12.98;;;7.60;;
71671;SDS011;62112;45.638;11.714;2023-02-01T15:06:32;13.57;;;7.60;;
71671;SDS011;62112;45.638;11.714;2023-02-01T15:09:10;13.43;;;7.22;;
71671;SDS011;62112;45.638;11.714;2023-02-01T15:11:56;12.23;;;7.30;;
71671;SDS011;62112;45.638;11.714;2023-02-01T15:14:29;13.07;;;7.60;;
71671;SDS011;62112;45.638;11.714;2023-02-01T15:17:03;11.57;;;7.10;;
71671;SDS011;62112;45.638;11.714;2023-02-01T15:19:56;12.70;;;7.32;;
71671;SDS011;62112;45.638;11.714;2023-02-01T15:22:24;13.48;;;8.48;;
71671;SDS011;62112;45.638;11.714;2023-02-01T15:24:57;11.37;;;6.80;;
71671;SDS011;62112;45.638;11.714;2023-02-01T15:27:24;12.10;;;7.18;;
71671;SDS011;62112;45.638;11.714;2023-02-01T15:29:52;11.98;;;6.78;;
71671;SDS011;62112;45.638;11.714;2023-02-01T15:32:29;12.05;;;6.68;;
71671;SDS011;62112;45.638;11.714;2023-02-01T15:34:57;11.18;;;6.57;;
71671;SDS011;62112;45.638;11.714;2023-02-01T15:37:26;12.63;;;7.50;;
71671;SDS011;62112;45.638;11.714;2023-02-01T15:40:14;13.18;;;7.43;;
71671;SDS011;62112;45.638;11.714;2023-02-01T15:42:51;13.02;;;7.13;;
71671;SDS011;62112;45.638;11.714;2023-02-01T15:45:20;12.18;;;7.38;;
71671;SDS011;62112;45.638;11.714;2023-02-01T15:47:52;12.63;;;7.13;;
71671;SDS011;62112;45.638;11.714;2023-02-01T15:50:21;11.60;;;6.90;;
71671;SDS011;62112;45.638;11.714;2023-02-01T15:52:49;12.50;;;7.53;;
71671;SDS011;62112;45.638;11.714;2023-02-01T15:58:09;11.55;;;6.95;;
71671;SDS011;62112;45.638;11.714;2023-02-01T16:00:45;11.43;;;6.78;;
71671;SDS011;62112;45.638;11.714;2023-02-01T16:06:11;11.95;;;7.38;;
71671;SDS011;62112;45.638;11.714;2023-02-01T16:08:55;10.73;;;6.78;;
71671;SDS011;62112;45.638;11.714;2023-02-01T16:11:28;14.00;;;8.23;;
71671;SDS011;62112;45.638;11.714;2023-02-01T16:14:04;12.52;;;7.05;;
71671;SDS011;62112;45.638;11.714;2023-02-01T16:16:30;13.67;;;7.50;;
71671;SDS011;62112;45.638;11.714;2023-02-01T16:18:57;13.30;;;7.35;;
71671;SDS011;62112;45.638;11.714;2023-02-01T16:21:23;12.63;;;7.15;;
71671;SDS011;62112;45.638;11.714;2023-02-01T16:23:49;11.90;;;7.18;;
71671;SDS011;62112;45.638;11.714;2023-02-01T16:26:16;11.63;;;6.67;;
71671;SDS011;62112;45.638;11.714;2023-02-01T16:28:42;12.45;;;6.93;;
71671;SDS011;62112;45.638;11.714;2023-02-01T16:31:11;12.50;;;7.20;;
71671;SDS011;62112;45.638;11.714;2023-02-01T16:33:44;12.38;;;7.00;;
71671;SDS011;62112;45.638;11.714;2023-02-01T16:36:16;12.87;;;7.10;;
71671;SDS011;62112;45.638;11.714;2023-02-01T16:38:43;13.07;;;6.85;;
71671;SDS011;62112;45.638;11.714;2023-02-01T16:41:15;11.77;;;7.15;;
71671;SDS011;62112;45.638;11.714;2023-02-01T16:43:42;11.95;;;6.97;;
71671;SDS011;62112;45.638;11.714;2023-02-01T16:46:16;12.07;;;7.03;;
71671;SDS011;62112;45.638;11.714;2023-02-01T16:48:46;10.97;;;6.60;;
71671;SDS011;62112;45.638;11.714;2023-02-01T16:51:19;12.50;;;6.75;;
71671;SDS011;62112;45.638;11.714;2023-02-01T16:53:46;12.00;;;7.15;;